Time;durP1;ratioP1;P1;durP2;ratioP2;P2;SDS_P1;SDS_P2;PMS_P1;PMS_P2;Temp;Humidity;BMP_temperature;BMP_pressure;BME280_temperature;BME280_humidity;BME280_pressure;Samples;Min_cycle;Max_cycle;Signal;HPM_P1;HPM_P2
2023/11/02 00:01:21;;;;;;;6.45;2.30;;;;;;;10.98;100.00;99026.00;5099337;28;20067;-66
2023/11/02 00:04:10;;;;;;;6.75;2.50;;;;;;;11.04;100.00;99019.31;5115470;28;20096;-65
2023/11/02 00:06:58;;;;;;;9.10;2.45;;;;;;;11.07;100.00;99013.22;5114458;28;20048;-66
2023/11/02 00:09:46;;;;;;;5.13;2.05;;;;;;;11.11;100.00;99001.69;5114020;28;20445;-65
2023/11/02 00:12:34;;;;;;;6.00;2.03;;;;;;;11.12;100.00;98989.66;5096276;28;20044;-65
2023/11/02 00:15:22;;;;;;;8.90;2.15;;;;;;;11.10;100.00;98973.63;5086581;28;20113;-65
2023/11/02 00:18:10;;;;;;;5.10;2.33;;;;;;;11.12;100.00;98959.69;5107394;27;20044;-66
2023/11/02 00:20:59;;;;;;;5.57;1.88;;;;;;;11.16;100.00;98955.19;5143997;27;20096;-65
2023/11/02 00:23:47;;;;;;;6.25;2.00;;;;;;;11.16;100.00;98939.66;5108368;28;20040;-65
2023/11/02 00:26:35;;;;;;;4.78;2.03;;;;;;;11.15;100.00;98926.34;5071285;28;20055;-65
2023/11/02 00:29:23;;;;;;;6.03;2.15;;;;;;;11.17;100.00;98921.38;5086144;28;20081;-65
2023/11/02 00:32:11;;;;;;;4.60;2.47;;;;;;;11.15;100.00;98920.88;5114577;28;20099;-65
2023/11/02 00:34:59;;;;;;;8.38;2.25;;;;;;;11.12;100.00;98911.44;5079068;28;20044;-65
2023/11/02 00:37:48;;;;;;;5.53;2.03;;;;;;;11.13;100.00;98909.50;5101799;27;20040;-66
2023/11/02 00:40:36;;;;;;;7.03;2.97;;;;;;;11.12;100.00;98891.56;5120579;27;20130;-66
2023/11/02 00:43:25;;;;;;;5.85;2.08;;;;;;;11.16;100.00;98884.31;5114162;27;20048;-66
2023/11/02 00:46:13;;;;;;;6.28;2.03;;;;;;;11.19;100.00;98879.03;5099134;28;20499;-65
2023/11/02 00:49:04;;;;;;;4.75;1.98;;;;;;;11.20;100.00;98868.94;5085146;28;20086;-65
2023/11/02 00:51:57;;;;;;;6.53;2.40;;;;;;;11.22;100.00;98861.25;5091503;27;20043;-66
2023/11/02 00:54:45;;;;;;;6.13;2.17;;;;;;;11.22;100.00;98862.03;5094268;28;20043;-66
2023/11/02 00:57:39;;;;;;;7.35;2.40;;;;;;;11.21;100.00;98846.03;5113364;28;20079;-66
2023/11/02 01:00:59;;;;;;;6.35;2.38;;;;;;;11.21;100.00;98832.41;5079952;28;20130;-66
2023/11/02 01:03:50;;;;;;;7.03;2.13;;;;;;;11.21;100.00;98833.19;5077797;28;20107;-66
2023/11/02 01:06:38;;;;;;;6.30;2.25;;;;;;;11.22;100.00;98825.81;5072027;28;20055;-66
2023/11/02 01:09:45;;;;;;;7.80;2.28;;;;;;;11.21;100.00;98816.84;5098391;28;20499;-65
2023/11/02 01:12:37;;;;;;;9.85;2.35;;;;;;;11.26;100.00;98818.59;5079875;28;20048;-65
2023/11/02 01:15:44;;;;;;;7.15;2.10;;;;;;;11.30;100.00;98809.47;5096271;27;20046;-65
2023/11/02 01:18:32;;;;;;;6.32;2.10;;;;;;;11.33;100.00;98785.38;5133491;27;20131;-65
2023/11/02 01:21:20;;;;;;;6.47;2.20;;;;;;;11.30;100.00;98775.91;5065324;28;20040;-66
2023/11/02 01:24:09;;;;;;;6.75;2.00;;;;;;;11.29;100.00;98779.78;5101232;28;20040;-66
2023/11/02 01:27:02;;;;;;;3.80;1.77;;;;;;;11.30;100.00;98770.47;5105867;27;20122;-66
2023/11/02 01:29:50;;;;;;;3.05;1.77;;;;;;;11.28;100.00;98765.34;5087056;28;20066;-65
2023/11/02 01:32:38;;;;;;;5.90;2.20;;;;;;;11.31;100.00;98763.91;5078898;28;20102;-66
2023/11/02 01:35:38;;;;;;;5.88;1.95;;;;;;;11.32;100.00;98754.59;5084634;28;20054;-66
2023/11/02 01:38:27;;;;;;;6.43;2.05;;;;;;;11.33;100.00;98748.03;5059397;28;20049;-65
2023/11/02 01:41:28;;;;;;;5.25;2.00;;;;;;;11.32;100.00;98732.78;5098045;28;20101;-66
2023/11/02 01:44:22;;;;;;;6.65;1.88;;;;;;;11.29;100.00;98717.06;5098121;28;20173;-66
2023/11/02 01:47:13;;;;;;;6.25;2.00;;;;;;;11.30;100.00;98699.56;5086393;27;20447;-65
2023/11/02 01:50:35;;;;;;;5.22;1.60;;;;;;;11.35;100.00;98691.22;5112177;28;20035;-65
2023/11/02 01:53:59;;;;;;;12.38;2.15;;;;;;;11.35;100.00;98668.63;5039721;28;20130;-65
2023/11/02 01:56:54;;;;;;;8.88;2.22;;;;;;;11.29;100.00;98646.19;5026053;28;20052;-65
2023/11/02 01:59:48;;;;;;;5.28;2.03;;;;;;;11.28;100.00;98620.03;5084486;28;20055;-67
2023/11/02 02:03:04;;;;;;;6.45;1.88;;;;;;;11.29;100.00;98613.47;5070907;28;20051;-65
2023/11/02 02:06:00;;;;;;;6.57;2.00;;;;;;;11.30;100.00;98585.09;5082154;28;20522;-66
2023/11/02 02:08:56;;;;;;;5.07;2.25;;;;;;;11.30;100.00;98557.81;5044596;28;20117;-66
2023/11/02 02:11:59;;;;;;;5.32;1.90;;;;;;;11.34;100.00;98542.41;5082927;28;20058;-65
2023/11/02 02:15:30;;;;;;;6.05;1.92;;;;;;;11.35;100.00;98515.94;5068864;28;20043;-66
2023/11/02 02:18:25;;;;;;;5.45;2.03;;;;;;;11.35;100.00;98514.00;5047602;28;20052;-65
2023/11/02 02:21:36;;;;;;;;;;;;;;;11.35;100.00;98499.59;5114401;28;20050;-66
2023/11/02 02:24:49;;;;;;;8.05;2.10;;;;;;;11.36;100.00;98474.72;5104351;28;19978;-66
2023/11/02 02:27:54;;;;;;;8.65;2.38;;;;;;;11.33;100.00;98456.31;5083666;28;20406;-66
2023/11/02 02:30:56;;;;;;;5.53;1.83;;;;;;;11.36;100.00;98454.84;5068980;28;20047;-65
2023/11/02 02:34:17;;;;;;;6.32;2.10;;;;;;;11.36;100.00;98441.22;5084926;28;20036;-66
2023/11/02 02:37:16;;;;;;;6.50;1.90;;;;;;;11.38;100.00;98414.44;5088541;28;20051;-66
2023/11/02 02:40:07;;;;;;;4.22;1.70;;;;;;;11.41;100.00;98405.56;5057363;28;20049;-66
2023/11/02 02:42:56;;;;;;;5.93;1.90;;;;;;;11.42;100.00;98391.59;5108229;28;20043;-65
2023/11/02 02:45:45;;;;;;;4.40;1.67;;;;;;;11.42;100.00;98374.44;5083231;28;20048;-66
2023/11/02 02:48:35;;;;;;;9.38;2.20;;;;;;;11.41;100.00;98361.94;5084157;28;20052;-65
2023/11/02 02:51:25;;;;;;;4.22;1.70;;;;;;;11.40;100.00;98360.34;5102813;27;20122;-64
2023/11/02 02:54:13;;;;;;;5.50;1.88;;;;;;;11.41;100.00;98343.66;5138954;27;20099;-65
2023/11/02 02:57:02;;;;;;;4.70;2.05;;;;;;;11.39;100.00;98337.72;5090875;28;20128;-64
2023/11/02 02:59:53;;;;;;;6.93;2.20;;;;;;;11.39;100.00;98318.66;5117629;28;20047;-65
2023/11/02 03:02:42;;;;;;;5.55;1.65;;;;;;;11.40;100.00;98309.34;5117331;28;20051;-65
2023/11/02 03:05:33;;;;;;;4.32;1.90;;;;;;;11.41;100.00;98283.66;5103337;28;20043;-65
2023/11/02 03:08:21;;;;;;;7.57;2.03;;;;;;;11.39;100.00;98255.94;5081126;28;20518;-65
2023/11/02 03:11:10;;;;;;;4.57;1.85;;;;;;;11.41;100.00;98245.50;5102434;28;20083;-64
2023/11/02 03:14:10;;;;;;;6.40;1.75;;;;;;;11.42;100.00;98205.41;5082937;28;20058;-64
2023/11/02 03:17:07;;;;;;;7.25;2.38;;;;;;;11.38;100.00;98169.84;5110527;28;20032;-65
2023/11/02 03:20:00;;;;;;;7.10;2.15;;;;;;;11.38;100.00;98139.84;5092969;28;20048;-65
2023/11/02 03:22:48;;;;;;;5.88;1.90;;;;;;;11.38;100.00;98156.22;5115800;27;20502;-64
2023/11/02 03:26:06;;;;;;;8.85;2.20;;;;;;;11.41;100.00;98157.47;5106140;28;20130;-65
2023/11/02 03:29:07;;;;;;;5.05;1.70;;;;;;;11.40;100.00;98143.03;5115335;28;20070;-65
2023/11/02 03:32:10;;;;;;;3.97;1.73;;;;;;;11.39;100.00;98089.63;5115162;28;20051;-66
2023/11/02 03:35:22;;;;;;;7.65;2.28;;;;;;;11.36;100.00;98153.03;5065667;28;20356;-65
2023/11/02 03:38:35;;;;;;;6.53;1.98;;;;;;;11.37;100.00;98230.16;5112582;28;20039;-65
2023/11/02 03:41:48;;;;;;;6.28;2.10;;;;;;;11.36;100.00;98210.28;5072942;28;20096;-65
2023/11/02 03:45:09;;;;;;;6.05;2.20;;;;;;;11.39;100.00;98227.88;5082203;28;20046;-65
2023/11/02 03:48:11;;;;;;;9.30;1.92;;;;;;;11.39;100.00;98190.50;5088347;28;20058;-66
2023/11/02 03:51:35;;;;;;;10.18;2.15;;;;;;;11.40;100.00;98181.22;5081456;28;20134;-66
2023/11/02 03:54:41;;;;;;;5.57;1.65;;;;;;;11.42;100.00;98123.59;5097275;28;20187;-67
2023/11/02 03:57:31;;;;;;;7.38;2.40;;;;;;;11.47;100.00;98091.47;5084713;28;20043;-66
2023/11/02 04:00:23;;;;;;;8.30;2.20;;;;;;;11.45;100.00;98080.09;5100743;28;20054;-66
2023/11/02 04:03:11;;;;;;;6.28;1.67;;;;;;;11.45;100.00;98055.56;5113872;28;20054;-65
2023/11/02 04:05:59;;;;;;;4.28;1.80;;;;;;;11.42;100.00;98028.19;5072998;28;20058;-65
2023/11/02 04:08:49;;;;;;;7.20;1.98;;;;;;;11.42;100.00;98004.44;5099599;28;20044;-65
2023/11/02 04:11:51;;;;;;;7.82;2.13;;;;;;;11.42;100.00;97944.47;5114177;28;20059;-65
2023/11/02 04:14:40;;;;;;;7.00;1.95;;;;;;;11.38;100.00;97935.41;5086075;28;20124;-65
2023/11/02 04:17:28;;;;;;;5.45;1.55;;;;;;;11.38;100.00;97929.94;5099029;28;20048;-66
2023/11/02 04:20:16;;;;;;;6.65;1.90;;;;;;;11.40;100.00;97929.59;5113892;28;20051;-65
2023/11/02 04:23:05;;;;;;;4.40;1.65;;;;;;;11.41;100.00;97931.97;5110729;28;20040;-65
2023/11/02 04:25:55;;;;;;;7.13;2.25;;;;;;;11.40;100.00;97943.22;5080760;28;20075;-65
2023/11/02 04:28:43;;;;;;;8.18;2.15;;;;;;;11.41;100.00;97963.91;5123951;28;20051;-65
2023/11/02 04:31:31;;;;;;;8.90;2.17;;;;;;;11.41;100.00;97964.69;5111946;28;20046;-67
2023/11/02 04:34:19;;;;;;;6.57;1.83;;;;;;;11.40;100.00;97935.84;5125491;28;20066;-66
2023/11/02 04:37:17;;;;;;;4.80;1.95;;;;;;;11.40;100.00;97913.22;5096423;28;20046;-66
2023/11/02 04:40:07;;;;;;;8.18;1.88;;;;;;;11.41;100.00;97903.94;5108576;28;20048;-65
2023/11/02 04:42:56;;;;;;;6.10;2.10;;;;;;;11.41;100.00;97887.56;5103355;28;20234;-66
2023/11/02 04:45:44;;;;;;;4.53;2.00;;;;;;;11.41;100.00;97869.28;5114720;28;20173;-66
2023/11/02 04:48:32;;;;;;;5.70;2.00;;;;;;;11.40;100.00;97851.34;5086029;28;20048;-66
2023/11/02 04:51:20;;;;;;;9.75;2.30;;;;;;;11.42;100.00;97813.59;5085920;28;20043;-66
2023/11/02 04:54:08;;;;;;;4.55;1.80;;;;;;;11.44;100.00;97821.44;5111329;28;20416;-66
2023/11/02 04:56:56;;;;;;;3.97;1.50;;;;;;;11.45;100.00;97845.63;5113777;27;20165;-66
2023/11/02 04:59:44;;;;;;;8.68;1.73;;;;;;;11.45;100.00;97823.03;5099478;28;20036;-66
2023/11/02 05:02:33;;;;;;;4.32;1.92;;;;;;;11.45;100.00;97810.19;5095677;28;20056;-66
2023/11/02 05:05:21;;;;;;;4.75;1.70;;;;;;;11.45;100.00;97812.91;5097032;28;20178;-66
2023/11/02 05:08:10;;;;;;;5.80;1.77;;;;;;;11.46;100.00;97802.81;5085974;28;20589;-66
2023/11/02 05:10:58;;;;;;;5.22;1.80;;;;;;;11.43;100.00;97778.97;5109618;28;20508;-66
2023/11/02 05:13:46;;;;;;;5.72;2.20;;;;;;;11.41;100.00;97757.50;5108084;28;20453;-67
2023/11/02 05:16:34;;;;;;;5.53;1.92;;;;;;;11.41;100.00;97752.06;5074292;28;20047;-65
2023/11/02 05:19:22;;;;;;;6.97;1.90;;;;;;;11.44;100.00;97769.63;5113501;28;20120;-66
2023/11/02 05:22:10;;;;;;;6.45;2.00;;;;;;;11.46;100.00;97773.59;5113527;28;20050;-67
2023/11/02 05:24:58;;;;;;;6.22;2.10;;;;;;;11.45;100.00;97765.78;5096119;28;20512;-66
2023/11/02 05:27:46;;;;;;;7.28;2.30;;;;;;;11.44;100.00;97773.16;5096949;28;20385;-67
2023/11/02 05:30:39;;;;;;;4.20;1.73;;;;;;;11.43;100.00;97754.44;5099122;28;20071;-66
2023/11/02 05:33:27;;;;;;;5.82;2.15;;;;;;;11.43;100.00;97752.50;5097826;28;20395;-65
2023/11/02 05:36:23;;;;;;;5.45;2.08;;;;;;;11.43;100.00;97743.53;5096503;28;20044;-66
2023/11/02 05:39:12;;;;;;;6.43;1.52;;;;;;;11.42;100.00;97745.44;5099021;28;20518;-65
2023/11/02 05:42:01;;;;;;;7.22;2.03;;;;;;;11.40;100.00;97725.94;5111980;28;20051;-65
2023/11/02 05:44:49;;;;;;;5.70;1.95;;;;;;;11.42;100.00;97720.91;5093884;28;20059;-65
2023/11/02 05:47:37;;;;;;;6.95;1.73;;;;;;;11.43;100.00;97719.78;5111665;28;20064;-65
2023/11/02 05:50:26;;;;;;;4.40;1.52;;;;;;;11.43;100.00;97722.50;5113143;28;20043;-65
2023/11/02 05:53:14;;;;;;;8.18;2.00;;;;;;;11.46;100.00;97704.66;5097628;28;20055;-65
2023/11/02 05:56:02;;;;;;;5.30;1.67;;;;;;;11.46;100.00;97710.91;5083822;28;20055;-66
2023/11/02 05:58:53;;;;;;;5.10;1.73;;;;;;;11.45;100.00;97687.50;5098693;28;20067;-66
2023/11/02 06:01:41;;;;;;;6.57;1.95;;;;;;;11.42;100.00;97666.38;5111320;28;20055;-65
2023/11/02 06:04:29;;;;;;;7.05;2.10;;;;;;;11.41;100.00;97664.81;5089014;28;20075;-66
2023/11/02 06:07:17;;;;;;;4.45;1.65;;;;;;;11.40;100.00;97674.16;5109019;28;20043;-65
2023/11/02 06:10:06;;;;;;;5.57;1.88;;;;;;;11.39;100.00;97671.75;5096866;28;20116;-66
2023/11/02 06:12:54;;;;;;;5.40;2.03;;;;;;;11.34;100.00;97663.84;5116608;28;20071;-66
2023/11/02 06:15:49;;;;;;;5.82;1.70;;;;;;;11.35;100.00;97677.09;5115184;28;20035;-66
2023/11/02 06:18:37;;;;;;;3.80;1.73;;;;;;;11.36;100.00;97680.66;5093923;28;20048;-65
2023/11/02 06:21:25;;;;;;;5.45;1.70;;;;;;;11.33;100.00;97662.25;5079879;28;20503;-65
2023/11/02 06:24:13;;;;;;;3.53;1.50;;;;;;;11.28;100.00;97675.00;5113858;28;20104;-65
2023/11/02 06:27:01;;;;;;;5.60;1.88;;;;;;;11.25;100.00;97674.91;5113190;28;20048;-66
2023/11/02 06:29:50;;;;;;;5.85;1.88;;;;;;;11.21;100.00;97671.31;5100788;28;20415;-66
2023/11/02 06:32:38;;;;;;;5.47;1.90;;;;;;;11.15;100.00;97661.81;4401427;28;10000829;-66
2023/11/02 06:35:26;;;;;;;4.88;1.60;;;;;;;11.12;100.00;97649.66;5092892;28;20044;-65
2023/11/02 06:38:15;;;;;;;4.75;1.50;;;;;;;11.13;100.00;97653.19;5090507;28;20092;-66
2023/11/02 06:41:03;;;;;;;3.78;1.65;;;;;;;11.12;100.00;97636.03;5101559;28;20124;-66
2023/11/02 06:43:51;;;;;;;4.32;1.60;;;;;;;11.14;100.00;97622.88;5082968;28;20116;-66
2023/11/02 06:46:39;;;;;;;3.05;1.30;;;;;;;11.14;100.00;97616.63;5112468;28;20044;-66
2023/11/02 06:49:27;;;;;;;3.25;1.42;;;;;;;11.16;100.00;97608.88;5111172;28;20676;-67
2023/11/02 06:52:16;;;;;;;4.97;1.35;;;;;;;11.19;100.00;97606.25;5109216;28;20051;-67
2023/11/02 06:55:05;;;;;;;5.25;1.75;;;;;;;11.19;100.00;97598.06;5111925;28;20043;-66
2023/11/02 06:57:53;;;;;;;3.67;1.48;;;;;;;11.20;100.00;97596.91;5111478;28;20055;-66
2023/11/02 07:00:41;;;;;;;3.85;1.50;;;;;;;11.19;100.00;97583.66;5112968;28;20535;-65
2023/11/02 07:03:30;;;;;;;3.33;1.38;;;;;;;11.17;100.00;97578.56;5108589;28;20051;-65
2023/11/02 07:06:18;;;;;;;5.03;1.52;;;;;;;11.16;100.00;97548.94;5097015;28;20056;-65
2023/11/02 07:09:07;;;;;;;2.47;1.50;;;;;;;11.19;100.00;97531.91;5111643;28;20126;-65
2023/11/02 07:11:55;;;;;;;3.15;1.52;;;;;;;11.23;100.00;97527.28;5101661;28;20106;-65
2023/11/02 07:14:44;;;;;;;2.92;1.25;;;;;;;11.26;100.00;97521.16;5118606;28;20047;-65
2023/11/02 07:17:33;;;;;;;4.60;1.83;;;;;;;11.29;100.00;97532.13;5108883;28;20047;-66
2023/11/02 07:20:21;;;;;;;2.80;1.48;;;;;;;11.31;100.00;97507.25;5089286;28;20077;-66
2023/11/02 07:23:09;;;;;;;2.50;1.40;;;;;;;11.34;100.00;97514.72;5101438;28;20050;-65
2023/11/02 07:26:00;;;;;;;3.22;1.88;;;;;;;11.38;100.00;97501.19;5102285;28;20047;-65
2023/11/02 07:28:48;;;;;;;4.03;1.40;;;;;;;11.40;100.00;97488.78;5127950;28;20043;-68
2023/11/02 07:31:40;;;;;;;4.28;1.45;;;;;;;11.42;100.00;97496.59;5101800;28;20058;-66
2023/11/02 07:34:28;;;;;;;5.40;1.30;;;;;;;11.45;100.00;97474.09;5119954;28;20152;-65
2023/11/02 07:37:16;;;;;;;2.00;1.48;;;;;;;11.48;100.00;97479.59;5102658;28;20040;-67
2023/11/02 07:40:05;;;;;;;3.08;1.10;;;;;;;11.50;100.00;97474.59;5116432;28;20071;-67
2023/11/02 07:42:53;;;;;;;3.92;1.30;;;;;;;11.54;100.00;97465.69;5123417;28;20103;-66
2023/11/02 07:45:41;;;;;;;2.42;1.45;;;;;;;11.55;100.00;97467.28;5100999;28;20036;-67
2023/11/02 07:48:29;;;;;;;2.05;1.15;;;;;;;11.53;100.00;97470.34;5115093;28;20176;-67
2023/11/02 07:51:17;;;;;;;4.55;1.38;;;;;;;11.54;100.00;97471.94;5085981;28;20131;-65
2023/11/02 07:54:07;;;;;;;4.28;1.70;;;;;;;11.55;100.00;97473.53;5094265;28;20056;-66
2023/11/02 07:56:55;;;;;;;4.18;1.48;;;;;;;11.54;100.00;97444.66;5088513;28;20048;-64
2023/11/02 07:59:43;;;;;;;4.25;1.60;;;;;;;11.57;100.00;97460.31;5096750;28;20059;-65
2023/11/02 08:02:31;;;;;;;4.78;1.98;;;;;;;11.61;100.00;97439.34;5105911;28;20495;-67
2023/11/02 08:05:19;;;;;;;6.68;1.83;;;;;;;11.72;100.00;97434.13;5087241;28;20122;-66
2023/11/02 08:08:07;;;;;;;5.78;1.80;;;;;;;11.77;100.00;97433.84;5099323;28;20127;-65
2023/11/02 08:10:56;;;;;;;6.57;2.40;;;;;;;11.84;100.00;97425.81;5100687;28;20519;-65
2023/11/02 08:13:44;;;;;;;5.32;1.67;;;;;;;11.90;100.00;97413.47;5114276;28;20047;-64
2023/11/02 08:16:32;;;;;;;5.32;1.63;;;;;;;11.98;100.00;97416.34;5100367;28;20135;-65
2023/11/02 08:19:20;;;;;;;6.45;2.22;;;;;;;11.98;100.00;97408.16;5098270;28;20532;-66
2023/11/02 08:22:08;;;;;;;8.00;2.90;;;;;;;12.05;100.00;97397.38;5099811;28;20051;-65
2023/11/02 08:24:56;;;;;;;6.85;2.53;;;;;;;12.09;100.00;97384.59;5091857;28;20092;-67
2023/11/02 08:27:46;;;;;;;7.68;2.38;;;;;;;12.14;100.00;97392.47;5098464;28;20047;-64
2023/11/02 08:30:34;;;;;;;10.30;3.13;;;;;;;12.26;100.00;97388.78;5094659;28;20044;-66
2023/11/02 08:33:25;;;;;;;9.73;2.58;;;;;;;12.29;100.00;97385.31;5098507;28;20052;-65
2023/11/02 08:36:14;;;;;;;9.93;2.80;;;;;;;12.30;100.00;97387.69;5115103;28;20116;-65
2023/11/02 08:39:06;;;;;;;11.85;3.58;;;;;;;12.31;100.00;97383.84;5114236;28;20044;-65
2023/11/02 08:41:54;;;;;;;10.23;2.70;;;;;;;12.29;100.00;97380.69;5102207;28;20051;-65
2023/11/02 08:44:42;;;;;;;7.60;2.38;;;;;;;12.25;100.00;97374.34;5101297;28;20113;-65
2023/11/02 08:47:34;;;;;;;10.95;3.03;;;;;;;12.28;100.00;97379.06;5114439;28;20042;-65
2023/11/02 08:50:23;;;;;;;13.98;4.30;;;;;;;12.46;100.00;97373.13;4392770;28;9999979;-65
2023/11/02 08:53:11;;;;;;;9.63;2.85;;;;;;;12.42;100.00;97366.84;5083538;28;20059;-65
2023/11/02 08:55:59;;;;;;;10.35;2.85;;;;;;;12.44;100.00;97359.06;5095201;28;20523;-65
2023/11/02 08:58:52;;;;;;;7.53;2.60;;;;;;;12.36;100.00;97358.97;5110278;28;20514;-64
2023/11/02 09:01:43;;;;;;;11.85;3.80;;;;;;;12.39;100.00;97356.63;5086408;28;20075;-64
2023/11/02 09:04:31;;;;;;;18.65;3.67;;;;;;;12.41;100.00;97349.66;5111033;28;20109;-64
2023/11/02 09:07:20;;;;;;;13.50;3.85;;;;;;;12.49;100.00;97351.34;5109965;28;20191;-67
2023/11/02 09:10:08;;;;;;;12.93;3.65;;;;;;;12.64;100.00;97346.13;5096282;28;20448;-64
2023/11/02 09:12:57;;;;;;;20.75;6.78;;;;;;;12.70;100.00;97323.59;5076855;28;20044;-65
2023/11/02 09:15:47;;;;;;;22.08;5.28;;;;;;;13.04;100.00;97331.88;5096482;28;20047;-65
2023/11/02 09:18:36;;;;;;;16.13;4.97;;;;;;;12.98;100.00;97338.78;5081584;28;20439;-64
2023/11/02 09:21:24;;;;;;;21.25;5.28;;;;;;;13.04;100.00;97347.47;5094246;28;20043;-65
2023/11/02 09:24:12;;;;;;;21.38;4.75;;;;;;;13.26;100.00;97323.94;5094499;28;20039;-65
2023/11/02 09:27:00;;;;;;;12.82;3.80;;;;;;;13.04;100.00;97329.13;5095913;28;20063;-65
2023/11/02 09:29:48;;;;;;;14.88;4.82;;;;;;;13.18;100.00;97320.31;5079789;28;20040;-65
2023/11/02 09:32:37;;;;;;;11.23;3.30;;;;;;;13.24;100.00;97302.44;5096520;28;20039;-66
2023/11/02 09:35:25;;;;;;;11.20;3.97;;;;;;;13.52;100.00;97315.69;5109710;28;20100;-65
2023/11/02 09:38:14;;;;;;;10.85;2.55;;;;;;;13.31;100.00;97312.72;5104993;28;20079;-65
2023/11/02 09:41:02;;;;;;;12.82;3.55;;;;;;;13.32;100.00;97304.13;5097435;28;20043;-65
2023/11/02 09:43:50;;;;;;;14.25;4.10;;;;;;;13.38;100.00;97301.84;5090936;28;20056;-65
2023/11/02 09:46:39;;;;;;;13.43;4.10;;;;;;;13.48;100.00;97312.13;5098319;28;20039;-65
2023/11/02 09:49:27;;;;;;;11.68;3.58;;;;;;;13.45;100.00;97293.72;5110678;28;20161;-65
2023/11/02 09:52:15;;;;;;;13.48;3.67;;;;;;;13.68;100.00;97287.31;5063919;28;20103;-65
2023/11/02 09:55:04;;;;;;;12.27;3.25;;;;;;;13.53;100.00;97291.84;5106728;27;20047;-64
2023/11/02 09:57:52;;;;;;;9.93;2.80;;;;;;;13.48;100.00;97303.91;5084649;28;20073;-64
2023/11/02 10:00:40;;;;;;;11.48;3.50;;;;;;;13.52;100.00;97293.03;5082037;28;20048;-65
2023/11/02 10:03:29;;;;;;;10.65;3.08;;;;;;;13.53;100.00;97289.91;5092990;28;20075;-65
2023/11/02 10:06:17;;;;;;;12.88;2.85;;;;;;;13.57;100.00;97279.78;5117410;27;20043;-64
2023/11/02 10:09:05;;;;;;;13.90;2.72;;;;;;;13.49;100.00;97280.88;5110513;28;20040;-66
2023/11/02 10:11:53;;;;;;;8.25;2.50;;;;;;;13.72;100.00;97269.00;5110374;28;20514;-65
2023/11/02 10:14:41;;;;;;;12.93;2.95;;;;;;;13.78;100.00;97273.75;5115006;28;20070;-65
2023/11/02 10:17:37;;;;;;;9.00;2.72;;;;;;;13.65;100.00;97264.25;5114673;28;20111;-64
2023/11/02 10:20:26;;;;;;;10.05;3.15;;;;;;;14.02;100.00;97261.47;5117269;28;20035;-65
2023/11/02 10:23:14;;;;;;;8.35;2.97;;;;;;;14.00;100.00;97274.75;5112720;28;20044;-65
2023/11/02 10:26:02;;;;;;;9.85;2.72;;;;;;;14.20;100.00;97274.50;5114828;28;20119;-66
2023/11/02 10:28:54;;;;;;;12.25;3.45;;;;;;;14.06;100.00;97264.22;5090808;28;20597;-65
2023/11/02 10:31:42;;;;;;;8.95;2.45;;;;;;;14.24;100.00;97267.13;5114700;28;20043;-65
2023/11/02 10:34:30;;;;;;;11.20;3.30;;;;;;;14.35;100.00;97276.19;5118156;28;20077;-64
2023/11/02 10:37:34;;;;;;;9.88;2.53;;;;;;;14.25;100.00;97271.41;5094716;28;20456;-65
2023/11/02 10:40:22;;;;;;;9.82;3.35;;;;;;;14.24;100.00;97280.81;5119692;28;20040;-65
2023/11/02 10:43:18;;;;;;;10.02;2.97;;;;;;;13.80;94.21;97270.63;5130395;28;20043;-66
2023/11/02 10:46:08;;;;;;;9.35;2.72;;;;;;;13.75;100.00;97255.34;5130039;28;20062;-65
2023/11/02 10:48:59;;;;;;;10.77;2.75;;;;;;;13.78;99.81;97237.38;5106088;28;20131;-65
2023/11/02 10:51:47;;;;;;;10.30;3.40;;;;;;;13.90;100.00;97212.47;5111838;28;20040;-64
2023/11/02 10:54:51;;;;;;;7.80;2.67;;;;;;;13.79;100.00;97228.81;5097486;28;20054;-64
2023/11/02 10:57:39;;;;;;;12.10;3.33;;;;;;;13.95;100.00;97255.94;5114474;28;20499;-65
2023/11/02 11:00:28;;;;;;;10.18;2.70;;;;;;;13.84;100.00;97233.16;5111302;28;20052;-64
2023/11/02 11:03:16;;;;;;;8.98;2.78;;;;;;;13.89;94.47;97235.53;5056934;28;20126;-65
2023/11/02 11:06:04;;;;;;;13.55;3.30;;;;;;;13.79;90.85;97217.09;5097580;28;20560;-65
2023/11/02 11:08:55;;;;;;;8.85;2.63;;;;;;;13.75;89.39;97224.47;5113826;28;20032;-65
2023/11/02 11:11:43;;;;;;;12.60;3.53;;;;;;;14.16;100.00;97230.66;5094882;28;20036;-66
2023/11/02 11:14:32;;;;;;;8.07;2.42;;;;;;;14.42;100.00;97232.41;5116693;28;20047;-66
2023/11/02 11:17:20;;;;;;;9.10;2.78;;;;;;;14.49;100.00;97217.97;5103331;27;20498;-65
2023/11/02 11:20:10;;;;;;;8.68;2.50;;;;;;;14.38;100.00;97198.75;5082163;28;20048;-66
2023/11/02 11:22:58;;;;;;;10.18;3.08;;;;;;;14.27;100.00;97197.91;5074644;28;20043;-66
2023/11/02 11:26:00;;;;;;;6.70;2.20;;;;;;;14.51;100.00;97201.16;5071827;28;20080;-66
2023/11/02 11:28:49;;;;;;;8.90;2.53;;;;;;;14.36;100.00;97203.81;5127647;27;20054;-65
2023/11/02 11:31:53;;;;;;;10.02;3.08;;;;;;;14.31;100.00;97200.63;5114249;28;20059;-65
2023/11/02 11:34:53;;;;;;;3.40;1.23;;;;;;;14.48;100.00;97187.06;5074421;28;20583;-66
2023/11/02 11:37:57;;;;;;;7.10;2.35;;;;;;;14.49;100.00;97183.16;5098368;28;20040;-65
2023/11/02 11:40:46;;;;;;;9.15;2.40;;;;;;;14.30;100.00;97224.50;5094603;28;20086;-64
2023/11/02 11:44:03;;;;;;;11.23;2.92;;;;;;;14.13;100.00;97225.16;5118886;28;20043;-66
2023/11/02 11:46:56;;;;;;;12.82;2.78;;;;;;;13.79;100.00;97239.75;5132549;28;20100;-66
2023/11/02 11:49:45;;;;;;;10.02;3.00;;;;;;;13.51;100.00;97234.78;5111448;27;20130;-64
2023/11/02 11:52:33;;;;;;;8.23;2.22;;;;;;;13.50;100.00;97205.09;5113564;28;20410;-62
2023/11/02 11:55:35;;;;;;;6.65;2.28;;;;;;;13.63;100.00;97192.69;5110003;28;20092;-65
2023/11/02 11:58:39;;;;;;;4.63;1.60;;;;;;;14.02;100.00;97197.69;5088178;27;20044;-65
2023/11/02 12:01:28;;;;;;;8.75;1.80;;;;;;;14.27;100.00;97184.19;5137079;27;20098;-65
2023/11/02 12:04:48;;;;;;;4.25;1.90;;;;;;;14.18;100.00;97200.16;5102383;28;20040;-66
2023/11/02 12:07:38;;;;;;;6.82;2.42;;;;;;;14.38;100.00;97206.97;5115792;28;20048;-65
2023/11/02 12:10:26;;;;;;;4.93;1.70;;;;;;;14.39;100.00;97167.44;5081590;28;20047;-65
2023/11/02 12:13:14;;;;;;;11.82;3.20;;;;;;;14.28;100.00;97189.28;5092202;28;20082;-66
2023/11/02 12:16:04;;;;;;;8.73;2.13;;;;;;;14.34;100.00;97156.09;5113001;28;20046;-66
2023/11/02 12:18:54;;;;;;;5.80;2.10;;;;;;;14.39;100.00;97172.94;5095181;28;20036;-65
2023/11/02 12:21:42;;;;;;;8.52;2.42;;;;;;;14.36;100.00;97167.41;5080390;28;20488;-66
2023/11/02 12:24:30;;;;;;;4.80;1.80;;;;;;;14.39;100.00;97170.19;5112108;28;20051;-66
2023/11/02 12:27:20;;;;;;;12.10;1.85;;;;;;;14.55;100.00;97175.41;5060008;28;20055;-65
2023/11/02 12:30:10;;;;;;;7.32;1.80;;;;;;;15.00;100.00;97167.72;5115296;28;20545;-65
2023/11/02 12:32:59;;;;;;;10.48;1.88;;;;;;;14.85;100.00;97150.44;5113159;27;20051;-65
2023/11/02 12:35:52;;;;;;;4.45;1.63;;;;;;;14.78;100.00;97149.66;5079194;28;20112;-65
2023/11/02 12:38:46;;;;;;;7.80;2.33;;;;;;;14.97;100.00;97154.03;5118106;27;20179;-66
2023/11/02 12:41:34;;;;;;;8.48;2.10;;;;;;;14.99;100.00;97154.44;5097619;28;20529;-65
2023/11/02 12:44:23;;;;;;;10.93;1.67;;;;;;;15.08;100.00;97149.34;5115367;28;20498;-65
2023/11/02 12:47:11;;;;;;;7.28;2.17;;;;;;;15.05;100.00;97159.13;5114584;28;20043;-65
2023/11/02 12:49:59;;;;;;;9.35;1.90;;;;;;;15.02;100.00;97148.94;5109812;28;20141;-66
2023/11/02 12:52:47;;;;;;;8.40;2.65;;;;;;;14.98;100.00;97133.66;5079795;28;20048;-64
2023/11/02 12:55:47;;;;;;;11.95;3.03;;;;;;;15.10;100.00;97128.59;5092638;28;20613;-65
2023/11/02 12:58:36;;;;;;;5.53;1.65;;;;;;;15.17;100.00;97144.25;5101245;27;20177;-65
2023/11/02 13:01:41;;;;;;;7.10;1.65;;;;;;;15.31;100.00;97138.81;5125729;27;20036;-65
2023/11/02 13:04:51;;;;;;;9.23;2.20;;;;;;;15.04;100.00;97154.03;5099663;28;20054;-65
2023/11/02 13:07:43;;;;;;;11.02;2.50;;;;;;;14.86;100.00;97149.31;5083774;28;20051;-65
2023/11/02 13:10:31;;;;;;;7.75;1.92;;;;;;;14.82;100.00;97134.78;5098391;28;20412;-65
2023/11/02 13:13:19;;;;;;;5.40;1.67;;;;;;;14.89;100.00;97126.59;5090965;27;20071;-66
2023/11/02 13:16:07;;;;;;;13.88;3.17;;;;;;;15.01;100.00;97124.66;5134407;27;20070;-64
2023/11/02 13:18:56;;;;;;;3.70;1.10;;;;;;;15.07;100.00;97145.03;5105864;27;20587;-64